This is the latest recevied weather packets stored in our database for station/object OM8AGG-10. If no packets are shown the sender has not sent any weather packets the latest 10 day(s).
| Time | Temp. | Humidity | Pressure | Rain* | Wind** | Luminosity | Snow |
|---|---|---|---|---|---|---|---|
| 1788249457 | 25.56° C | 40% | 1019.3 hPa | - | - | - | - |
| 1788248557 | 26.11° C | 41% | 1019.3 hPa | - | - | - | - |
| 1788247657 | 25.56° C | 43% | 1019.3 hPa | - | - | - | - |
| 1788246757 | 24.44° C | 49% | 1019.2 hPa | - | - | - | - |
| 1788245857 | 25° C | 52% | 1019.1 hPa | - | - | - | - |
| 1788244957 | 23.89° C | 57% | 1019.2 hPa | - | - | - | - |
| 1788244057 | 23.33° C | 60% | 1019 hPa | - | - | - | - |
| 1788243157 | 23.33° C | 58% | 1019 hPa | - | - | - | - |
| 1788242256 | 23.33° C | 58% | 1018.7 hPa | - | - | - | - |
| 1788241356 | 22.78° C | 59% | 1018.7 hPa | - | - | - | - |
| 1788240456 | 21.67° C | 66% | 1018.6 hPa | - | - | - | - |
| 1788239556 | 20.56° C | 68% | 1018.6 hPa | - | - | - | - |
| 1788238656 | 20.56° C | 68% | 1018.4 hPa | - | - | - | - |
| 1788237756 | 20.56° C | 69% | 1018.3 hPa | - | - | - | - |
| 1788236856 | 20.56° C | 69% | 1018.2 hPa | - | - | - | - |
| 1788235955 | 21.11° C | 68% | 1018.2 hPa | - | - | - | - |
| 1788217953 | 22.78° C | 58% | 1016.2 hPa | - | - | - | - |
| 1788210751 | 23.89° C | 52% | 1015.9 hPa | - | - | - | - |
| 1788207150 | 22.22° C | 50% | 1015.2 hPa | - | - | - | - |
| 1788206250 | 20° C | 56% | 1015.2 hPa | - | - | - | - |
| 1788204450 | 20.56° C | 49% | 1014.8 hPa | - | - | - | - |
| 1788203550 | 20.56° C | 51% | 1014.8 hPa | - | - | - | - |
| 1788202650 | 20.56° C | 50% | 1014.8 hPa | - | - | - | - |
| 1788200849 | 22.78° C | 43% | 1014.7 hPa | - | - | - | - |
| 1788199949 | 23.89° C | 41% | 1014.6 hPa | - | - | - | - |
* Rain since midnight (hover to see other rain measurements)
** Current wind speed in m/s (hover to see current wind gust speed)